Aeroporto :
LOGIN :

Iscrizione | Disclaimer

   EN    FR    IT 

 










Sommario :    VFR   VFR Marginale   IFR   IFR Intensivo   IFR Molto Intensivo
Visibilità : 
Base nubi : 
>= 8 km
>= 3000ft
5 / 8 km
1000 / 3000 ft
1500m / 5 km
500 / 1000 ft
800 / 1500m
200 / 500 ft
< 800m
< 200 ft
Simboli :   Temporali  Nebbia  Neve Forte  Precipitazioni Forti  Vento > 20 kt
SIGMETs :   Varie  Temporali  Ghiacco  Turbolenza  Onda orograficha  Ceneri Vulcaniche







- Altitudine del aeroporto : 53 ft
- Codice IATA : LBC


EDHL - Lübeck

ULTIMO METAR :
  • 270750Z 27009KT 230V320 9999 SCT025 17/11 Q1025

METARs OBSOLETI :
  • 270720Z 28009KT 240V320 9999 SCT026 16/10 Q1025
  • 270650Z 29006KT 240V030 9999 SCT031 15/09 Q1025
  • 270620Z 28008KT 230V330 9999 SCT025 15/10 Q1025
  • 270550Z 28007KT 220V040 9999 BKN024 14/09 Q1025
  • 270520Z 28008KT 240V330 CAVOK 13/09 Q1025

TAF TAF EDHL
Valido dal 27 a 06 ore il 27 a 15 ore UTC


270500Z 2706/2715 30012KT 9999 BKN020
TEMPO 2706/2715 30015G25KT
Nessun NOTAM noto per questo aeroporto.



MetMap, La meteo Aeronautica in un colpo d'occhio ! - Copyright ORBIFLY Dicembre 2007 - Disclaimer

ORBIFLY MET'MAP TEAM :

Programmazione e sviluppo : Alexandra Zaïnal
Concezione e sviluppo : Baudouin d'Aumeries
Co-Programmazione e sviluppo : Marc-Olivier Méhu
Supporto tecnico e logistico : Manuel Goepfert
Aiuto per la traduzione : Arnaldo La Scala

Contatto : metmap@orbifly.com




FONTI E CREDITI :

   NOAA